createdAt,value
2018-12-31T00:00:33.069Z,2.37
2018-12-31T00:03:38.349Z,2.32
2018-12-31T00:06:43.755Z,2.32
2018-12-31T00:09:49.080Z,2.30
2018-12-31T00:12:54.544Z,2.30
2018-12-31T00:15:59.831Z,2.28
2018-12-31T00:19:05.236Z,2.27
2018-12-31T00:22:10.513Z,2.33
2018-12-31T00:25:15.922Z,2.35
2018-12-31T00:28:21.358Z,2.30
2018-12-31T00:31:26.825Z,2.34
2018-12-31T00:34:32.105Z,2.32
2018-12-31T00:37:37.612Z,2.27
2018-12-31T00:40:42.884Z,2.27
2018-12-31T00:43:48.303Z,2.20
2018-12-31T00:46:53.583Z,2.15
2018-12-31T00:49:58.987Z,2.13
2018-12-31T00:53:04.375Z,2.10
2018-12-31T00:56:09.886Z,2.08
2018-12-31T00:59:15.157Z,2.08
2018-12-31T01:02:20.572Z,2.05
2018-12-31T01:05:25.846Z,2.04
2018-12-31T01:08:31.364Z,1.98
2018-12-31T01:11:36.631Z,1.91
2018-12-31T01:14:42.051Z,1.91
2018-12-31T01:17:47.333Z,1.89
2018-12-31T01:20:52.757Z,1.90
2018-12-31T01:23:58.019Z,1.90
2018-12-31T01:27:03.445Z,1.88
2018-12-31T01:30:09.331Z,1.86
2018-12-31T01:33:14.740Z,1.87
2018-12-31T01:36:20.012Z,1.85
2018-12-31T01:39:25.428Z,1.87
2018-12-31T01:42:30.705Z,1.92
2018-12-31T01:45:36.204Z,1.93
2018-12-31T01:48:41.483Z,1.92
2018-12-31T01:51:47.013Z,1.91
2018-12-31T01:54:53.110Z,1.94
2018-12-31T01:57:58.522Z,1.94
2018-12-31T02:01:03.792Z,1.93
2018-12-31T02:04:09.209Z,1.91
2018-12-31T02:07:14.477Z,1.90
2018-12-31T02:10:19.903Z,1.88
2018-12-31T02:13:25.221Z,1.93
2018-12-31T02:16:30.584Z,1.86
2018-12-31T02:19:35.855Z,1.82
2018-12-31T02:22:41.275Z,1.77
2018-12-31T02:25:46.557Z,1.75
2018-12-31T02:28:52.324Z,1.74
2018-12-31T02:31:57.738Z,1.75
2018-12-31T02:35:03.374Z,1.70
2018-12-31T02:38:08.645Z,1.67
2018-12-31T02:41:14.066Z,1.63
2018-12-31T02:44:19.335Z,1.62
2018-12-31T02:47:24.749Z,1.61
2018-12-31T02:50:30.084Z,1.61
2018-12-31T02:53:35.542Z,1.61
2018-12-31T02:56:40.923Z,1.60
2018-12-31T02:59:46.652Z,1.57
2018-12-31T03:02:51.922Z,1.55
2018-12-31T03:05:57.333Z,1.51
2018-12-31T03:09:02.606Z,1.46
2018-12-31T03:12:08.019Z,1.48
2018-12-31T03:15:13.345Z,1.44
2018-12-31T03:18:18.815Z,1.46
2018-12-31T03:21:24.086Z,1.46
2018-12-31T03:24:29.603Z,1.49
2018-12-31T03:27:34.868Z,1.50
2018-12-31T03:30:40.251Z,1.50
2018-12-31T03:33:45.527Z,1.54
2018-12-31T03:36:51.190Z,1.56
2018-12-31T03:39:56.473Z,1.55
2018-12-31T03:43:02.284Z,1.58
2018-12-31T03:46:07.560Z,1.60
2018-12-31T03:49:12.978Z,1.59
2018-12-31T03:52:18.508Z,1.56
2018-12-31T03:55:23.887Z,1.53
2018-12-31T03:58:29.295Z,1.52
2018-12-31T04:01:34.648Z,1.47
2018-12-31T04:04:39.958Z,1.50
2018-12-31T04:07:52.767Z,1.51
2018-12-31T04:10:52.318Z,1.51
2018-12-31T04:13:57.781Z,1.50
2018-12-31T04:17:03.056Z,1.49
2018-12-31T04:20:08.467Z,1.48
2018-12-31T04:23:13.747Z,1.51
2018-12-31T04:26:19.166Z,1.54
2018-12-31T04:29:24.448Z,1.49
2018-12-31T04:32:30.161Z,1.48
2018-12-31T04:35:35.429Z,1.47
2018-12-31T04:38:40.847Z,1.42
2018-12-31T04:41:46.150Z,1.41
2018-12-31T04:44:51.540Z,1.39
2018-12-31T04:47:56.807Z,1.40
2018-12-31T04:51:02.225Z,1.41
2018-12-31T04:54:07.496Z,1.41
2018-12-31T04:57:12.911Z,1.45
2018-12-31T05:00:18.191Z,1.42
2018-12-31T05:03:23.604Z,1.44
2018-12-31T05:06:28.878Z,1.41
2018-12-31T05:09:34.393Z,1.44
2018-12-31T05:12:39.658Z,1.46
2018-12-31T05:15:45.090Z,1.49
2018-12-31T05:18:50.351Z,1.48
2018-12-31T05:21:55.716Z,1.51
2018-12-31T05:25:00.990Z,1.47
2018-12-31T05:28:06.358Z,1.42
2018-12-31T05:31:11.645Z,1.41
2018-12-31T05:34:17.048Z,1.46
2018-12-31T05:37:22.323Z,1.46
2018-12-31T05:40:27.676Z,1.48
2018-12-31T05:43:32.942Z,1.43
2018-12-31T05:46:38.330Z,1.44
2018-12-31T05:49:43.601Z,1.44
2018-12-31T05:52:48.957Z,1.40
2018-12-31T05:55:54.228Z,1.40
2018-12-31T05:58:59.599Z,1.40
2018-12-31T06:02:04.979Z,1.41
2018-12-31T06:05:10.599Z,1.43
2018-12-31T06:08:15.872Z,1.40
2018-12-31T06:11:21.266Z,1.42
2018-12-31T06:14:26.540Z,1.43
2018-12-31T06:17:31.903Z,1.43
2018-12-31T06:20:37.174Z,1.43
2018-12-31T06:23:42.564Z,1.43
2018-12-31T06:26:47.841Z,1.41
2018-12-31T06:29:53.253Z,1.41
2018-12-31T06:32:58.578Z,1.42
2018-12-31T06:36:03.936Z,1.45
2018-12-31T06:39:09.377Z,1.43
2018-12-31T06:42:14.834Z,1.45
2018-12-31T06:45:20.107Z,1.49
2018-12-31T06:48:25.468Z,1.50
2018-12-31T06:51:30.735Z,1.47
2018-12-31T06:54:36.089Z,1.48
2018-12-31T06:57:41.368Z,1.47
2018-12-31T07:00:46.865Z,1.48
2018-12-31T07:03:53.003Z,1.46
2018-12-31T07:06:58.517Z,1.48
2018-12-31T07:10:04.381Z,1.47
2018-12-31T07:13:09.717Z,1.47
2018-12-31T07:16:15.077Z,1.48
2018-12-31T07:19:20.508Z,1.50
2018-12-31T07:22:25.876Z,1.48
2018-12-31T07:25:31.301Z,1.50
2018-12-31T07:28:36.577Z,1.53
2018-12-31T07:31:41.947Z,1.54
2018-12-31T07:34:47.208Z,1.51
2018-12-31T07:37:52.676Z,1.51
2018-12-31T07:40:57.953Z,1.56
2018-12-31T07:44:03.370Z,1.54
2018-12-31T07:47:08.643Z,1.55
2018-12-31T07:50:14.056Z,1.54
2018-12-31T07:53:19.339Z,1.54
2018-12-31T07:56:24.757Z,1.54
2018-12-31T07:59:30.171Z,1.54
2018-12-31T08:02:35.642Z,1.58
2018-12-31T08:05:41.018Z,1.54
2018-12-31T08:08:46.431Z,1.56
2018-12-31T08:11:51.710Z,1.57
2018-12-31T08:14:57.121Z,1.58
2018-12-31T08:18:02.403Z,1.59
2018-12-31T08:21:07.914Z,1.63
2018-12-31T08:24:13.189Z,1.63
2018-12-31T08:27:18.599Z,1.63
2018-12-31T08:30:23.878Z,1.63
2018-12-31T08:33:29.292Z,1.62
2018-12-31T08:36:34.571Z,1.61
2018-12-31T08:39:39.982Z,1.61
2018-12-31T08:42:45.300Z,1.57
2018-12-31T08:45:50.770Z,1.58
2018-12-31T08:48:56.049Z,1.59
2018-12-31T08:52:01.561Z,1.60
2018-12-31T08:55:06.845Z,1.63
2018-12-31T08:58:12.206Z,1.61
2018-12-31T09:01:17.486Z,1.61
2018-12-31T09:04:22.941Z,1.62
2018-12-31T09:07:28.523Z,1.64
2018-12-31T09:10:34.246Z,1.69
2018-12-31T09:13:39.535Z,1.69
2018-12-31T09:16:44.935Z,1.72
2018-12-31T09:19:50.218Z,1.73
2018-12-31T09:22:55.624Z,1.76
2018-12-31T09:26:00.900Z,1.79
2018-12-31T09:29:06.322Z,1.83
2018-12-31T09:32:11.595Z,1.87
2018-12-31T09:35:17.003Z,1.88
2018-12-31T09:38:22.280Z,1.93
2018-12-31T09:41:27.699Z,1.96
2018-12-31T09:44:33.206Z,2.03
2018-12-31T09:47:38.566Z,2.08
2018-12-31T09:50:43.841Z,2.13
2018-12-31T09:53:49.276Z,2.14
2018-12-31T09:56:54.554Z,2.09
2018-12-31T10:00:00.087Z,2.07
2018-12-31T10:03:05.425Z,2.07
2018-12-31T10:06:10.869Z,2.04
2018-12-31T10:09:17.005Z,2.04
2018-12-31T10:12:22.469Z,1.98
2018-12-31T10:15:27.813Z,1.99
2018-12-31T10:18:33.263Z,2.01
2018-12-31T10:21:41.077Z,2.07
2018-12-31T10:24:45.898Z,2.04
2018-12-31T10:27:51.171Z,2.04
2018-12-31T10:30:56.926Z,2.01
2018-12-31T10:34:02.206Z,1.96
2018-12-31T10:37:07.693Z,1.96
2018-12-31T10:40:12.962Z,1.96
2018-12-31T10:43:18.517Z,1.92
2018-12-31T10:46:23.793Z,1.95
2018-12-31T10:49:29.166Z,1.97
2018-12-31T10:52:34.768Z,1.98
2018-12-31T10:55:40.174Z,2.06
2018-12-31T10:58:45.446Z,2.03
2018-12-31T11:01:50.852Z,2.08
2018-12-31T11:04:56.240Z,2.11
2018-12-31T11:08:01.648Z,2.13
2018-12-31T11:11:07.761Z,2.16
2018-12-31T11:14:13.153Z,2.10
2018-12-31T11:17:18.441Z,2.09
2018-12-31T11:20:23.844Z,2.11
2018-12-31T11:23:29.124Z,2.11
2018-12-31T11:26:34.534Z,2.09
2018-12-31T11:29:39.912Z,2.07
2018-12-31T11:32:45.327Z,2.08
2018-12-31T11:35:50.598Z,2.06
2018-12-31T11:38:56.047Z,2.05
2018-12-31T11:42:01.532Z,2.03
2018-12-31T11:45:07.401Z,2.04
2018-12-31T11:48:12.692Z,2.03
2018-12-31T11:51:18.311Z,2.01
2018-12-31T11:54:23.597Z,1.99
2018-12-31T11:57:31.873Z,1.98
2018-12-31T12:00:37.224Z,1.98
2018-12-31T12:03:42.925Z,1.98
2018-12-31T12:06:48.196Z,1.98
2018-12-31T12:09:53.657Z,1.99
2018-12-31T12:12:59.389Z,1.95
2018-12-31T12:16:04.861Z,1.95
2018-12-31T12:19:10.142Z,1.94
2018-12-31T12:22:15.550Z,1.96
2018-12-31T12:25:21.405Z,1.99
2018-12-31T12:28:26.852Z,2.01
2018-12-31T12:31:32.131Z,2.05
2018-12-31T12:34:37.550Z,1.98
2018-12-31T12:37:48.439Z,2.01
2018-12-31T12:40:50.074Z,1.99
2018-12-31T12:43:55.356Z,1.96
2018-12-31T12:47:00.874Z,1.92
2018-12-31T12:50:06.799Z,1.92
2018-12-31T12:53:12.167Z,1.90
2018-12-31T12:56:17.461Z,1.91
2018-12-31T12:59:22.863Z,1.91
2018-12-31T13:02:28.211Z,1.96
2018-12-31T13:05:33.754Z,1.98
2018-12-31T13:08:39.136Z,1.99
2018-12-31T13:11:44.548Z,2.00
2018-12-31T13:14:50.636Z,2.06
2018-12-31T13:17:56.052Z,2.07
2018-12-31T13:21:01.328Z,2.00
2018-12-31T13:24:06.911Z,1.99
2018-12-31T13:27:12.180Z,1.89
2018-12-31T13:30:17.636Z,1.89
2018-12-31T13:33:22.918Z,1.87
2018-12-31T13:36:30.577Z,1.89
2018-12-31T13:39:35.896Z,1.91
2018-12-31T13:42:41.368Z,1.89
2018-12-31T13:45:46.649Z,1.94
2018-12-31T13:48:52.575Z,1.84
2018-12-31T13:51:58.177Z,1.79
2018-12-31T13:55:03.568Z,1.78
2018-12-31T13:58:09.953Z,1.74
2018-12-31T14:01:15.584Z,1.73
2018-12-31T14:04:20.936Z,1.74
2018-12-31T14:07:27.099Z,1.76
2018-12-31T14:10:32.379Z,1.71
2018-12-31T14:13:38.097Z,1.71
2018-12-31T14:16:44.321Z,1.70
2018-12-31T14:19:49.704Z,1.71
2018-12-31T14:22:55.642Z,1.70
2018-12-31T14:26:01.284Z,1.68
2018-12-31T14:29:06.567Z,1.64
2018-12-31T14:32:12.109Z,1.61
2018-12-31T14:35:17.454Z,1.60
2018-12-31T14:38:22.814Z,1.61
2018-12-31T14:41:28.154Z,1.63
2018-12-31T14:44:33.585Z,1.60
2018-12-31T14:47:39.132Z,1.58
2018-12-31T14:50:44.591Z,1.56
2018-12-31T14:53:49.871Z,1.56
2018-12-31T14:56:55.277Z,1.53
2018-12-31T15:00:00.554Z,1.55
2018-12-31T15:03:06.097Z,1.56
2018-12-31T15:06:11.380Z,1.55
2018-12-31T15:09:17.016Z,1.52
2018-12-31T15:12:22.559Z,1.50
2018-12-31T15:15:27.958Z,1.50
2018-12-31T15:18:34.916Z,1.54
2018-12-31T15:21:40.491Z,1.53
2018-12-31T15:24:46.226Z,1.60
2018-12-31T15:27:53.743Z,1.59
2018-12-31T15:30:59.025Z,1.59
2018-12-31T15:34:04.428Z,1.58
2018-12-31T15:37:10.092Z,1.59
2018-12-31T15:40:15.527Z,1.54
2018-12-31T15:43:20.801Z,1.54
2018-12-31T15:46:26.319Z,1.55
2018-12-31T15:49:31.593Z,1.56
2018-12-31T15:52:37.031Z,1.51
2018-12-31T15:55:42.817Z,1.57
2018-12-31T15:58:48.196Z,1.60
2018-12-31T16:01:53.472Z,1.60
2018-12-31T16:04:58.897Z,1.60
2018-12-31T16:08:04.186Z,1.56
2018-12-31T16:11:09.698Z,1.54
2018-12-31T16:14:15.008Z,1.54
2018-12-31T16:17:20.483Z,1.56
2018-12-31T16:20:25.908Z,1.53
2018-12-31T16:23:33.735Z,1.56
2018-12-31T16:26:39.016Z,1.55
2018-12-31T16:29:44.448Z,1.55
2018-12-31T16:32:49.721Z,1.55
2018-12-31T16:35:55.829Z,1.54
2018-12-31T16:39:01.149Z,1.55
2018-12-31T16:42:06.619Z,1.51
2018-12-31T16:45:11.904Z,1.53
2018-12-31T16:48:17.307Z,1.52
2018-12-31T16:51:22.592Z,1.53
2018-12-31T16:54:27.994Z,1.50
2018-12-31T16:57:33.277Z,1.53
2018-12-31T17:00:38.689Z,1.50
2018-12-31T17:03:43.970Z,1.51
2018-12-31T17:06:49.374Z,1.50
2018-12-31T17:09:54.661Z,1.51
2018-12-31T17:13:00.030Z,1.46
2018-12-31T17:16:05.304Z,1.46
2018-12-31T17:19:10.753Z,1.45
2018-12-31T17:22:16.132Z,1.43
2018-12-31T17:25:21.908Z,1.42
2018-12-31T17:28:27.453Z,1.43
2018-12-31T17:31:32.850Z,1.35
2018-12-31T17:34:38.131Z,1.31
2018-12-31T17:37:43.541Z,1.30
2018-12-31T17:40:48.827Z,1.33
2018-12-31T17:43:54.229Z,1.36
2018-12-31T17:46:59.550Z,1.41
2018-12-31T17:50:07.361Z,1.36
2018-12-31T17:53:12.641Z,1.37
2018-12-31T17:56:18.385Z,1.32
2018-12-31T17:59:26.222Z,1.31
2018-12-31T18:02:31.615Z,1.29
2018-12-31T18:05:36.942Z,1.27
2018-12-31T18:08:42.717Z,1.27
2018-12-31T18:11:47.994Z,1.29
2018-12-31T18:14:53.411Z,1.31
2018-12-31T18:17:58.693Z,1.37
2018-12-31T18:21:04.102Z,1.39
2018-12-31T18:24:09.473Z,1.41
2018-12-31T18:27:14.987Z,1.40
2018-12-31T18:30:20.271Z,1.37
2018-12-31T18:33:25.682Z,1.36
2018-12-31T18:36:30.957Z,1.32
2018-12-31T18:39:36.377Z,1.32
2018-12-31T18:42:41.645Z,1.28
2018-12-31T18:45:47.063Z,1.25
2018-12-31T18:48:52.344Z,1.20
2018-12-31T18:51:58.110Z,1.20
2018-12-31T18:55:03.847Z,1.15
2018-12-31T18:58:09.258Z,1.13
2018-12-31T19:01:14.581Z,1.15
2018-12-31T19:04:20.050Z,1.14
2018-12-31T19:07:25.335Z,1.15
2018-12-31T19:10:30.741Z,1.15
2018-12-31T19:13:36.031Z,1.15
2018-12-31T19:16:41.542Z,1.14
2018-12-31T19:19:47.133Z,1.11
2018-12-31T19:22:52.632Z,1.09
2018-12-31T19:25:58.077Z,1.05
2018-12-31T19:29:03.486Z,1.06
2018-12-31T19:32:08.774Z,1.09
2018-12-31T19:35:14.217Z,1.08
2018-12-31T19:38:19.499Z,1.10
2018-12-31T19:41:25.313Z,1.08
2018-12-31T19:44:30.597Z,1.06
2018-12-31T19:47:36.001Z,1.08
2018-12-31T19:50:41.289Z,1.10
2018-12-31T19:53:46.691Z,1.12
2018-12-31T19:56:51.986Z,1.13
2018-12-31T19:59:57.381Z,1.14
2018-12-31T20:03:02.712Z,1.20
2018-12-31T20:06:08.180Z,1.23
2018-12-31T20:09:13.462Z,1.20
2018-12-31T20:12:18.862Z,1.21
2018-12-31T20:15:24.520Z,1.19
2018-12-31T20:18:29.963Z,1.16
2018-12-31T20:21:35.241Z,1.14
2018-12-31T20:24:40.609Z,1.13
2018-12-31T20:27:45.967Z,1.12
2018-12-31T20:30:51.443Z,1.11
2018-12-31T20:33:56.762Z,1.12
2018-12-31T20:37:02.436Z,1.11
2018-12-31T20:40:08.164Z,1.14
2018-12-31T20:43:13.647Z,1.13
2018-12-31T20:46:18.924Z,1.09
2018-12-31T20:49:24.690Z,1.09
2018-12-31T20:52:30.062Z,1.07
2018-12-31T20:55:35.537Z,1.07
2018-12-31T20:58:41.201Z,1.06
2018-12-31T21:01:46.630Z,1.04
2018-12-31T21:04:51.962Z,1.07
2018-12-31T21:07:57.422Z,1.06
2018-12-31T21:11:02.703Z,1.07
2018-12-31T21:14:08.109Z,1.07
2018-12-31T21:17:13.391Z,1.05
2018-12-31T21:20:18.759Z,1.02
2018-12-31T21:23:24.124Z,1.03
2018-12-31T21:26:29.593Z,1.05
2018-12-31T21:29:34.976Z,1.02
2018-12-31T21:32:40.586Z,1.02
2018-12-31T21:35:45.869Z,1.04
2018-12-31T21:38:51.536Z,1.06
2018-12-31T21:41:56.810Z,1.10
2018-12-31T21:45:02.274Z,1.09
2018-12-31T21:48:07.561Z,1.08
2018-12-31T21:51:12.963Z,1.08
2018-12-31T21:54:18.243Z,1.07
2018-12-31T21:57:23.650Z,1.04
2018-12-31T22:00:28.933Z,1.05
2018-12-31T22:03:34.366Z,1.01
2018-12-31T22:06:40.123Z,0.99
2018-12-31T22:09:45.545Z,0.96
2018-12-31T22:12:50.827Z,0.94
2018-12-31T22:15:56.229Z,0.93
2018-12-31T22:19:01.520Z,0.90
2018-12-31T22:22:06.922Z,0.90
2018-12-31T22:25:12.248Z,0.89
2018-12-31T22:28:17.710Z,0.84
2018-12-31T22:31:23.806Z,0.82
2018-12-31T22:34:29.231Z,0.78
2018-12-31T22:37:34.509Z,0.77
2018-12-31T22:40:40.213Z,0.80
2018-12-31T22:43:45.495Z,0.79
2018-12-31T22:46:50.904Z,0.80
2018-12-31T22:49:56.190Z,0.79
2018-12-31T22:53:01.600Z,0.79
2018-12-31T22:56:06.877Z,0.80
2018-12-31T22:59:12.254Z,0.79
2018-12-31T23:02:17.542Z,0.81
2018-12-31T23:05:23.105Z,0.77
2018-12-31T23:08:28.387Z,0.80
2018-12-31T23:11:33.768Z,0.80
2018-12-31T23:14:39.051Z,0.74
2018-12-31T23:17:44.462Z,0.73
2018-12-31T23:20:49.738Z,0.73
2018-12-31T23:23:55.146Z,0.71
2018-12-31T23:27:00.803Z,0.69
2018-12-31T23:30:10.011Z,0.72
2018-12-31T23:33:16.429Z,0.73
2018-12-31T23:36:21.844Z,0.78
2018-12-31T23:39:27.497Z,0.79
2018-12-31T23:42:33.051Z,0.88
2018-12-31T23:45:38.328Z,0.87
2018-12-31T23:48:43.837Z,0.90
2018-12-31T23:51:49.122Z,0.94
2018-12-31T23:54:54.530Z,1.00
2018-12-31T23:57:59.805Z,1.02
